createdAt,value
2022-12-05T00:03:50.231Z,29.10
2022-12-05T00:06:12.813Z,30.77
2022-12-05T00:08:35.094Z,32.20
2022-12-05T00:10:57.398Z,31.10
2022-12-05T00:13:19.822Z,31.67
2022-12-05T00:15:42.169Z,32.17
2022-12-05T00:18:04.853Z,33.65
2022-12-05T00:20:27.154Z,33.50
2022-12-05T00:22:49.463Z,34.30
2022-12-05T00:25:11.739Z,31.37
2022-12-05T00:27:34.172Z,30.33
2022-12-05T00:29:56.686Z,30.70
2022-12-05T00:32:19.275Z,33.15
2022-12-05T00:34:41.608Z,31.25
2022-12-05T00:37:03.927Z,29.00
2022-12-05T00:39:26.248Z,29.85
2022-12-05T00:41:48.556Z,29.50
2022-12-05T00:44:12.060Z,30.15
2022-12-05T00:46:34.825Z,29.17
2022-12-05T00:48:58.514Z,29.65
2022-12-05T00:51:34.620Z,28.67
2022-12-05T00:54:02.205Z,28.85
2022-12-05T00:56:24.982Z,30.17
2022-12-05T00:58:47.416Z,30.48
2022-12-05T01:01:19.041Z,27.80
2022-12-05T01:03:41.687Z,27.23
2022-12-05T01:06:06.061Z,27.60
2022-12-05T01:08:28.680Z,28.25
2022-12-05T01:10:57.816Z,29.15
2022-12-05T01:13:20.112Z,29.55
2022-12-05T01:15:42.437Z,30.20
2022-12-05T01:18:04.901Z,31.13
2022-12-05T01:20:27.236Z,29.20
2022-12-05T01:22:49.527Z,30.05
2022-12-05T01:25:11.839Z,30.07
2022-12-05T01:27:34.180Z,28.60
2022-12-05T01:29:56.849Z,30.07
2022-12-05T01:32:19.461Z,29.40
2022-12-05T01:34:41.858Z,32.30
2022-12-05T01:37:04.273Z,31.38
2022-12-05T01:39:26.719Z,29.73
2022-12-05T01:41:49.883Z,29.40
2022-12-05T01:46:40.142Z,29.85
2022-12-05T01:49:34.104Z,29.88
2022-12-05T01:52:00.538Z,30.75
2022-12-05T01:54:23.038Z,29.75
2022-12-05T01:56:48.834Z,27.92
2022-12-05T01:59:11.357Z,28.38
2022-12-05T02:01:33.768Z,28.75
2022-12-05T02:03:57.604Z,30.08
2022-12-05T02:06:19.943Z,29.17
2022-12-05T02:08:42.535Z,27.37
2022-12-05T02:11:06.840Z,29.35
2022-12-05T02:13:39.418Z,28.77
2022-12-05T02:16:21.747Z,28.07
2022-12-05T02:18:57.874Z,27.48
2022-12-05T02:21:42.029Z,28.67
2022-12-05T02:24:44.236Z,27.52
2022-12-05T02:27:27.360Z,26.75
2022-12-05T02:30:11.281Z,28.30
2022-12-05T02:32:54.591Z,27.60
2022-12-05T02:35:42.123Z,28.15
2022-12-05T02:38:27.153Z,29.15
2022-12-05T02:41:13.149Z,27.30
2022-12-05T02:44:20.638Z,28.80
2022-12-05T02:46:43.067Z,27.20
2022-12-05T02:49:10.889Z,27.77
2022-12-05T02:51:36.772Z,28.35
2022-12-05T02:54:02.518Z,28.45
2022-12-05T02:56:24.938Z,28.67
2022-12-05T02:58:55.186Z,30.65
2022-12-05T03:01:18.585Z,27.90
2022-12-05T03:03:40.939Z,27.25
2022-12-05T03:06:34.052Z,28.47
2022-12-05T03:09:23.930Z,26.48
2022-12-05T03:12:27.832Z,27.25
2022-12-05T03:15:14.696Z,26.73
2022-12-05T03:17:59.045Z,27.48
2022-12-05T03:20:27.723Z,29.45
2022-12-05T03:22:58.958Z,30.48
2022-12-05T03:25:26.937Z,28.10
2022-12-05T03:27:52.763Z,27.63
2022-12-05T03:30:17.164Z,27.48
2022-12-05T03:32:49.742Z,27.58
2022-12-05T03:35:15.618Z,27.83
2022-12-05T03:37:54.069Z,26.95
2022-12-05T03:41:04.452Z,27.17
2022-12-05T03:43:59.139Z,25.80
2022-12-05T03:46:51.660Z,25.77
2022-12-05T03:49:20.106Z,25.45
2022-12-05T03:51:54.622Z,25.15
2022-12-05T03:54:28.011Z,25.55
2022-12-05T03:57:24.291Z,24.90
2022-12-05T04:00:09.299Z,24.52
2022-12-05T04:02:45.710Z,25.38
2022-12-05T04:05:38.271Z,26.08
2022-12-05T04:08:13.093Z,25.80
2022-12-05T04:10:48.761Z,24.48
2022-12-05T04:13:20.350Z,26.23
2022-12-05T04:16:01.543Z,25.17
2022-12-05T04:18:23.890Z,25.38
2022-12-05T04:21:04.941Z,27.07
2022-12-05T04:23:27.871Z,26.13
2022-12-05T04:26:14.635Z,26.25
2022-12-05T04:28:49.804Z,25.30
2022-12-05T04:31:21.279Z,26.80
2022-12-05T04:33:46.936Z,25.95
2022-12-05T04:36:12.218Z,27.83
2022-12-05T04:39:18.343Z,26.50
2022-12-05T04:41:48.586Z,26.52
2022-12-05T04:44:12.932Z,27.23
2022-12-05T04:46:36.031Z,26.27
2022-12-05T04:49:00.632Z,26.15
2022-12-05T04:51:25.780Z,28.02
2022-12-05T04:53:49.768Z,26.05
2022-12-05T04:56:12.793Z,26.85
2022-12-05T04:58:35.117Z,25.95
2022-12-05T05:01:23.667Z,28.33
2022-12-05T05:03:53.255Z,26.77
2022-12-05T05:06:15.626Z,27.05
2022-12-05T05:08:37.914Z,27.25
2022-12-05T05:11:19.640Z,27.07
2022-12-05T05:13:42.111Z,26.00
2022-12-05T05:16:06.263Z,26.88
2022-12-05T05:18:28.685Z,27.80
2022-12-05T05:20:51.027Z,27.02
2022-12-05T05:23:13.850Z,26.75
2022-12-05T05:25:36.145Z,25.17
2022-12-05T05:27:58.505Z,26.85
2022-12-05T05:30:21.046Z,26.85
2022-12-05T05:32:43.391Z,25.77
2022-12-05T05:35:06.216Z,26.93
2022-12-05T05:37:28.542Z,28.45
2022-12-05T05:39:50.861Z,26.80
2022-12-05T05:42:13.172Z,26.38
2022-12-05T05:44:35.602Z,26.02
2022-12-05T05:46:57.947Z,26.58
2022-12-05T05:49:20.258Z,28.67
2022-12-05T05:51:42.581Z,26.67
2022-12-05T05:54:04.955Z,29.00
2022-12-05T05:56:27.583Z,27.95
2022-12-05T05:59:01.642Z,27.48
2022-12-05T06:01:24.230Z,30.23
2022-12-05T06:03:46.841Z,29.15
2022-12-05T06:06:11.935Z,29.05
2022-12-05T06:08:35.922Z,30.45
2022-12-05T06:10:58.326Z,28.73
2022-12-05T06:13:20.705Z,29.27
2022-12-05T06:15:42.996Z,28.42
2022-12-05T06:18:05.494Z,27.35
2022-12-05T06:20:27.886Z,27.83
2022-12-05T06:22:50.204Z,28.20
2022-12-05T06:25:12.533Z,28.23
2022-12-05T06:27:35.003Z,28.47
2022-12-05T06:29:57.550Z,28.52
2022-12-05T06:32:20.040Z,26.63
2022-12-05T06:34:42.356Z,27.92
2022-12-05T06:37:04.744Z,28.97
2022-12-05T06:39:27.155Z,28.90
2022-12-05T06:41:49.426Z,30.02
2022-12-05T06:44:11.754Z,28.07
2022-12-05T06:46:34.041Z,28.70
2022-12-05T06:48:57.363Z,27.50
2022-12-05T06:51:19.793Z,29.48
2022-12-05T06:53:42.331Z,30.35
2022-12-05T06:56:07.697Z,30.25
2022-12-05T06:58:30.084Z,31.40
2022-12-05T07:01:11.395Z,32.33
2022-12-05T07:03:33.783Z,29.95
2022-12-05T07:05:56.109Z,30.13
2022-12-05T07:08:18.479Z,28.67
2022-12-05T07:10:40.816Z,27.65
2022-12-05T07:13:03.155Z,30.73
2022-12-05T07:15:25.471Z,33.40
2022-12-05T07:17:47.778Z,30.45
2022-12-05T07:20:12.642Z,32.77
2022-12-05T07:22:36.207Z,31.77
2022-12-05T07:24:58.510Z,31.98
2022-12-05T07:27:26.854Z,30.90
2022-12-05T07:29:50.214Z,30.90
2022-12-05T07:32:12.648Z,31.90
2022-12-05T07:34:35.262Z,30.25
2022-12-05T07:36:57.580Z,31.48
2022-12-05T07:39:19.940Z,29.58
2022-12-05T07:41:42.259Z,29.63
2022-12-05T07:44:04.639Z,30.97
2022-12-05T07:46:27.938Z,29.48
2022-12-05T07:48:50.484Z,27.42
2022-12-05T07:51:12.804Z,28.65
2022-12-05T07:53:35.228Z,29.37
2022-12-05T07:56:00.482Z,27.63
2022-12-05T07:58:22.791Z,28.85
2022-12-05T08:00:45.137Z,29.70
2022-12-05T08:03:07.549Z,29.67
2022-12-05T08:05:29.962Z,29.13
2022-12-05T08:07:52.386Z,28.30
2022-12-05T08:10:14.725Z,29.67
2022-12-05T08:12:37.990Z,29.13
2022-12-05T08:17:22.683Z,30.40
2022-12-05T08:19:45.122Z,30.35
2022-12-05T08:22:07.577Z,29.75
2022-12-05T08:24:29.874Z,30.20
2022-12-05T08:26:52.383Z,31.30
2022-12-05T08:29:15.444Z,31.15
2022-12-05T08:31:42.250Z,29.70
2022-12-05T08:34:04.741Z,29.83
2022-12-05T08:36:28.402Z,27.70
2022-12-05T08:38:55.297Z,28.73
2022-12-05T08:41:17.950Z,28.02
2022-12-05T08:43:40.301Z,27.90
2022-12-05T08:46:02.706Z,26.52
2022-12-05T08:48:29.215Z,29.17
2022-12-05T08:50:51.859Z,28.27
2022-12-05T08:53:14.317Z,27.60
2022-12-05T08:55:36.808Z,27.73
2022-12-05T08:57:59.101Z,27.25
2022-12-05T09:00:21.680Z,29.13
2022-12-05T09:02:44.052Z,27.38
2022-12-05T09:05:26.189Z,27.63
2022-12-05T09:07:49.807Z,27.98
2022-12-05T09:10:12.168Z,27.00
2022-12-05T09:12:39.161Z,27.58
2022-12-05T09:15:01.481Z,28.80
2022-12-05T09:17:24.287Z,28.43
2022-12-05T09:19:46.679Z,28.60
2022-12-05T09:22:08.959Z,27.90
2022-12-05T09:24:31.307Z,29.10
2022-12-05T09:26:53.584Z,27.95
2022-12-05T09:29:17.550Z,29.37
2022-12-05T09:31:43.076Z,29.33
2022-12-05T09:34:05.992Z,27.80
2022-12-05T09:36:30.175Z,28.52
2022-12-05T09:38:52.850Z,28.55
2022-12-05T09:41:17.654Z,28.15
2022-12-05T09:44:00.677Z,28.83
2022-12-05T09:46:45.679Z,28.45
2022-12-05T09:49:08.922Z,30.00
2022-12-05T09:53:53.557Z,28.52
2022-12-05T09:56:29.931Z,30.80
2022-12-05T09:58:53.556Z,31.45
2022-12-05T10:01:30.784Z,31.05
2022-12-05T10:04:17.615Z,28.95
2022-12-05T10:07:40.434Z,28.05
2022-12-05T10:10:34.888Z,26.48
2022-12-05T10:13:22.855Z,26.85
2022-12-05T10:15:53.152Z,25.90
2022-12-05T10:18:54.658Z,26.92
2022-12-05T10:21:30.599Z,27.52
2022-12-05T10:23:59.689Z,27.15
2022-12-05T10:26:23.882Z,25.85
2022-12-05T10:29:01.799Z,26.13
2022-12-05T10:31:31.532Z,26.65
2022-12-05T10:34:17.615Z,25.67
2022-12-05T10:36:40.122Z,25.58
2022-12-05T10:39:04.755Z,23.92
2022-12-05T10:41:30.723Z,25.58
2022-12-05T10:43:53.050Z,25.30
2022-12-05T10:46:17.371Z,23.77
2022-12-05T10:48:41.441Z,24.05
2022-12-05T10:51:04.132Z,23.63
2022-12-05T10:53:28.939Z,24.73
2022-12-05T10:56:28.146Z,25.00
2022-12-05T10:58:34.579Z,26.17
2022-12-05T11:00:58.664Z,26.95
2022-12-05T11:03:40.640Z,23.95
2022-12-05T11:06:16.071Z,24.98
2022-12-05T11:09:06.555Z,25.80
2022-12-05T11:11:28.614Z,24.05
2022-12-05T11:14:07.834Z,25.85
2022-12-05T11:16:33.215Z,26.20
2022-12-05T11:18:55.585Z,25.60
2022-12-05T11:21:20.079Z,25.73
2022-12-05T11:23:42.400Z,24.98
2022-12-05T11:26:04.869Z,25.33
2022-12-05T11:28:36.291Z,25.13
2022-12-05T11:30:58.759Z,24.92
2022-12-05T11:33:23.076Z,25.27
2022-12-05T11:35:46.058Z,24.50
2022-12-05T11:38:09.884Z,25.58
2022-12-05T11:41:13.631Z,25.27
2022-12-05T11:44:18.073Z,25.05
2022-12-05T11:47:36.815Z,25.10
2022-12-05T11:50:39.923Z,27.95
2022-12-05T11:53:52.284Z,26.58
2022-12-05T11:56:40.797Z,27.08
2022-12-05T11:59:29.119Z,27.38
2022-12-05T12:02:13.917Z,26.65
2022-12-05T12:05:19.155Z,26.98
2022-12-05T12:08:03.105Z,27.27
2022-12-05T12:10:55.080Z,26.25
2022-12-05T12:13:25.991Z,26.83
2022-12-05T12:16:15.716Z,27.55
2022-12-05T12:18:59.120Z,27.05
2022-12-05T12:21:53.758Z,27.50
2022-12-05T12:24:51.196Z,28.05
2022-12-05T12:27:36.593Z,26.45
2022-12-05T12:30:20.249Z,26.08
2022-12-05T12:33:27.787Z,26.83
2022-12-05T12:36:03.000Z,24.88
2022-12-05T12:39:15.154Z,27.25
2022-12-05T12:41:58.546Z,25.35
2022-12-05T12:44:28.991Z,26.95
2022-12-05T12:46:34.064Z,26.38
2022-12-05T12:49:07.225Z,26.35
2022-12-05T12:51:12.334Z,26.80
2022-12-05T12:55:13.189Z,27.23
2022-12-05T12:58:00.117Z,25.50
2022-12-05T13:00:51.310Z,24.80
2022-12-05T13:03:53.974Z,25.95
2022-12-05T13:06:31.278Z,24.33
2022-12-05T13:09:04.705Z,26.05
2022-12-05T13:11:29.175Z,24.98
2022-12-05T13:13:57.213Z,26.58
2022-12-05T13:16:42.575Z,27.27
2022-12-05T13:19:29.326Z,25.88
2022-12-05T13:21:31.822Z,25.45
2022-12-05T13:23:40.831Z,26.50
2022-12-05T13:25:43.067Z,26.73
2022-12-05T13:27:58.904Z,28.15
2022-12-05T13:32:05.513Z,26.98
2022-12-05T13:34:27.755Z,25.40
2022-12-05T13:36:52.959Z,27.48
2022-12-05T13:39:37.214Z,27.70
2022-12-05T13:42:00.303Z,25.27
2022-12-05T13:44:06.748Z,27.27
2022-12-05T13:46:19.147Z,26.00
2022-12-05T13:48:23.826Z,26.20
2022-12-05T13:50:51.749Z,27.52
2022-12-05T13:53:07.044Z,27.88
2022-12-05T13:55:35.826Z,28.30
2022-12-05T13:57:39.643Z,27.48
2022-12-05T14:00:09.231Z,27.90
2022-12-05T14:02:42.742Z,27.92
2022-12-05T14:04:51.010Z,29.15
2022-12-05T14:06:53.375Z,29.25
2022-12-05T14:08:55.869Z,28.52
2022-12-05T14:10:58.115Z,31.98
2022-12-05T14:13:18.630Z,31.92
2022-12-05T14:15:42.841Z,29.92
2022-12-05T14:18:11.308Z,30.58
2022-12-05T14:20:49.020Z,30.30
2022-12-05T14:23:17.455Z,30.05
2022-12-05T14:26:17.507Z,28.98
2022-12-05T14:28:53.525Z,30.25
2022-12-05T14:31:15.785Z,30.48
2022-12-05T14:33:18.153Z,30.30
2022-12-05T14:38:03.391Z,30.42
2022-12-05T14:40:43.208Z,29.35
2022-12-05T14:43:07.793Z,29.27
2022-12-05T14:45:32.874Z,28.73
2022-12-05T14:47:35.153Z,29.92
2022-12-05T14:49:52.914Z,29.90
2022-12-05T14:51:57.339Z,29.60
2022-12-05T14:54:18.890Z,28.50
2022-12-05T14:56:25.558Z,29.48
2022-12-05T14:58:46.050Z,30.63
2022-12-05T15:01:00.252Z,30.25
2022-12-05T15:03:02.621Z,35.20
2022-12-05T15:05:33.064Z,30.50
2022-12-05T15:07:37.510Z,29.98
2022-12-05T15:09:54.815Z,30.60
2022-12-05T15:11:57.042Z,29.13
2022-12-05T15:14:16.835Z,30.52
2022-12-05T15:16:20.073Z,30.15
2022-12-05T15:18:42.750Z,29.90
2022-12-05T15:21:02.514Z,29.92
2022-12-05T15:23:04.548Z,30.35
2022-12-05T15:25:30.736Z,31.42
2022-12-05T15:27:33.005Z,29.65
2022-12-05T15:29:35.344Z,30.00
2022-12-05T15:31:50.176Z,32.42
2022-12-05T15:33:52.688Z,30.95
2022-12-05T15:35:54.676Z,30.38
2022-12-05T15:38:04.501Z,30.70
2022-12-05T15:40:10.277Z,32.47
2022-12-05T15:42:14.568Z,31.38
2022-12-05T15:44:20.057Z,29.95
2022-12-05T15:46:28.149Z,30.83
2022-12-05T15:48:30.842Z,31.10
2022-12-05T15:50:48.788Z,29.30
2022-12-05T15:52:55.687Z,29.67
2022-12-05T15:55:05.018Z,28.25
2022-12-05T15:57:17.443Z,31.50
2022-12-05T15:59:23.462Z,30.25
2022-12-05T16:01:26.209Z,30.55
2022-12-05T16:03:43.611Z,31.20
2022-12-05T16:05:53.917Z,31.08
2022-12-05T16:07:56.194Z,31.08
2022-12-05T16:09:59.668Z,29.92
2022-12-05T16:12:15.473Z,30.83
2022-12-05T16:14:31.194Z,32.13
2022-12-05T16:16:40.198Z,30.77
2022-12-05T16:18:56.094Z,30.85
2022-12-05T16:20:58.300Z,33.33
2022-12-05T16:23:06.404Z,31.13
2022-12-05T16:25:17.035Z,32.45
2022-12-05T16:27:31.818Z,33.22
2022-12-05T16:29:34.618Z,31.92
2022-12-05T16:31:37.056Z,32.83
2022-12-05T16:33:43.463Z,31.90
2022-12-05T16:35:46.741Z,32.47
2022-12-05T16:37:48.801Z,32.42
2022-12-05T16:39:50.938Z,32.65
2022-12-05T16:41:53.511Z,30.45
2022-12-05T16:43:57.388Z,34.08
2022-12-05T16:46:27.689Z,30.20
2022-12-05T16:48:31.078Z,31.50
2022-12-05T16:50:35.015Z,32.88
2022-12-05T16:52:37.390Z,33.03
2022-12-05T16:54:39.555Z,31.48
2022-12-05T16:56:41.984Z,32.38
2022-12-05T16:58:44.055Z,32.78
2022-12-05T17:00:46.286Z,33.47
2022-12-05T17:02:48.429Z,32.78
2022-12-05T17:04:50.428Z,31.17
2022-12-05T17:06:52.648Z,32.28
2022-12-05T17:08:54.926Z,35.67
2022-12-05T17:10:57.992Z,34.05
2022-12-05T17:13:01.250Z,32.92
2022-12-05T17:15:03.833Z,31.92
2022-12-05T17:19:16.206Z,33.17
2022-12-05T17:21:23.798Z,33.33
2022-12-05T17:23:26.102Z,33.67
2022-12-05T17:25:36.330Z,33.40
2022-12-05T17:27:38.659Z,34.60
2022-12-05T17:29:40.998Z,32.83
2022-12-05T17:31:43.472Z,33.25
2022-12-05T17:33:46.226Z,32.55
2022-12-05T17:35:48.755Z,34.15
2022-12-05T17:37:50.831Z,35.47
2022-12-05T17:39:52.978Z,34.20
2022-12-05T17:41:54.999Z,33.95
2022-12-05T17:43:57.430Z,35.25
2022-12-05T17:46:00.751Z,34.17
2022-12-05T17:48:02.744Z,32.95
2022-12-05T17:50:06.169Z,35.63
2022-12-05T17:52:24.592Z,36.25
2022-12-05T17:54:26.825Z,32.15
2022-12-05T17:56:28.969Z,33.53
2022-12-05T17:58:31.114Z,34.08
2022-12-05T18:00:52.083Z,32.83
2022-12-05T18:03:14.411Z,33.92
2022-12-05T18:05:36.827Z,34.28
2022-12-05T18:07:41.665Z,34.15
2022-12-05T18:09:43.714Z,35.10
2022-12-05T18:11:45.694Z,35.80
2022-12-05T18:13:48.138Z,34.95
2022-12-05T18:15:55.429Z,33.75
2022-12-05T18:18:17.395Z,34.03
2022-12-05T18:20:38.179Z,35.00
2022-12-05T18:22:40.306Z,35.50
2022-12-05T18:24:42.344Z,34.17
2022-12-05T18:28:47.561Z,32.78
2022-12-05T18:32:51.500Z,33.72
2022-12-05T18:34:53.645Z,33.65
2022-12-05T18:36:56.262Z,32.22
2022-12-05T18:38:59.313Z,42.33
2022-12-05T18:43:22.633Z,35.17
2022-12-05T18:45:24.829Z,33.85
2022-12-05T18:47:27.096Z,35.00
2022-12-05T18:49:29.247Z,33.40
2022-12-05T18:51:31.571Z,35.17
2022-12-05T18:53:34.061Z,35.30
2022-12-05T18:56:13.550Z,34.92
2022-12-05T18:57:59.239Z,34.80
2022-12-05T19:02:05.531Z,34.40
2022-12-05T19:04:09.523Z,33.17
2022-12-05T19:06:13.864Z,33.83
2022-12-05T19:08:16.273Z,34.55
2022-12-05T19:10:18.512Z,36.05
2022-12-05T19:12:21.118Z,37.03
2022-12-05T19:16:26.566Z,34.63
2022-12-05T19:18:28.949Z,34.95
2022-12-05T19:20:31.342Z,36.13
2022-12-05T19:22:33.836Z,34.65
2022-12-05T19:24:37.074Z,47.47
2022-12-05T19:26:39.501Z,41.70
2022-12-05T19:28:41.604Z,37.38
2022-12-05T19:30:43.861Z,35.95
2022-12-05T19:32:46.402Z,37.42
2022-12-05T19:34:50.059Z,35.20
2022-12-05T19:36:52.107Z,36.67
2022-12-05T19:38:54.853Z,38.35
2022-12-05T19:40:57.855Z,36.72
2022-12-05T19:43:00.160Z,35.75
2022-12-05T19:45:07.721Z,36.25
2022-12-05T19:47:10.853Z,38.95
2022-12-05T19:49:14.421Z,37.88
2022-12-05T19:51:16.511Z,39.85
2022-12-05T19:53:18.772Z,37.90
2022-12-05T19:55:20.925Z,39.70
2022-12-05T19:57:23.789Z,39.83
2022-12-05T19:59:26.235Z,40.22
2022-12-05T20:01:30.462Z,53.25
2022-12-05T20:03:33.390Z,49.13
2022-12-05T20:05:35.813Z,42.75
2022-12-05T20:07:38.025Z,42.55
2022-12-05T20:09:40.834Z,49.80
2022-12-05T20:15:50.520Z,40.53
2022-12-05T20:17:53.458Z,40.83
2022-12-05T20:19:56.327Z,40.63
2022-12-05T20:24:01.523Z,38.13
2022-12-05T20:26:21.854Z,41.10
2022-12-05T20:28:24.380Z,41.00
2022-12-05T20:30:26.949Z,42.40
2022-12-05T20:32:29.107Z,41.55
2022-12-05T20:34:31.319Z,42.63
2022-12-05T20:36:34.527Z,42.55
2022-12-05T20:38:36.745Z,42.42
2022-12-05T20:40:38.920Z,45.45
2022-12-05T20:42:46.480Z,39.15
2022-12-05T20:44:49.022Z,54.70
2022-12-05T20:46:51.940Z,49.47
2022-12-05T20:48:54.670Z,45.92
2022-12-05T20:51:02.676Z,44.35
2022-12-05T20:53:05.035Z,43.72
2022-12-05T20:55:07.761Z,46.53
2022-12-05T20:57:09.779Z,48.60
2022-12-05T20:59:13.235Z,45.67
2022-12-05T21:01:15.744Z,45.92
2022-12-05T21:03:17.821Z,43.92
2022-12-05T21:05:19.920Z,45.65
2022-12-05T21:07:22.085Z,44.03
2022-12-05T21:09:29.452Z,44.42
2022-12-05T21:11:31.679Z,44.58
2022-12-05T21:15:37.037Z,43.83
2022-12-05T21:17:39.248Z,45.55
2022-12-05T21:19:41.448Z,44.60
2022-12-05T21:21:43.921Z,45.75
2022-12-05T21:23:47.530Z,46.83
2022-12-05T21:25:49.705Z,48.22
2022-12-05T21:27:52.009Z,44.63
2022-12-05T21:29:54.371Z,46.25
2022-12-05T21:31:56.787Z,46.67
2022-12-05T21:34:05.298Z,46.22
2022-12-05T21:36:08.131Z,48.17
2022-12-05T21:38:10.099Z,47.20
2022-12-05T21:42:14.670Z,43.60
2022-12-05T21:44:16.986Z,45.70
2022-12-05T21:46:19.509Z,45.20
2022-12-05T21:48:23.023Z,47.08
2022-12-05T21:50:25.182Z,47.55
2022-12-05T21:52:27.578Z,47.97
2022-12-05T21:54:30.539Z,48.05
2022-12-05T21:56:33.072Z,48.00
2022-12-05T21:58:40.697Z,47.90
2022-12-05T22:00:44.597Z,48.10
2022-12-05T22:02:47.192Z,48.75
2022-12-05T22:04:49.934Z,45.08
2022-12-05T22:06:52.264Z,49.65
2022-12-05T22:08:55.115Z,47.17
2022-12-05T22:11:10.333Z,49.63
2022-12-05T22:13:12.559Z,50.70
2022-12-05T22:15:14.781Z,49.53
2022-12-05T22:17:16.952Z,49.33
2022-12-05T22:19:19.206Z,51.70
2022-12-05T22:21:21.694Z,53.40
2022-12-05T22:23:24.335Z,53.63
2022-12-05T22:25:26.484Z,53.60
2022-12-05T22:27:30.079Z,55.40
2022-12-05T22:29:32.385Z,51.58
2022-12-05T22:31:34.583Z,52.38
2022-12-05T22:33:37.028Z,51.90
2022-12-05T22:35:39.244Z,50.70
2022-12-05T22:37:41.556Z,51.40
2022-12-05T22:39:43.952Z,49.00
2022-12-05T22:41:45.921Z,52.08
2022-12-05T22:43:49.123Z,51.28
2022-12-05T22:45:51.476Z,49.38
2022-12-05T22:47:53.515Z,48.78
2022-12-05T22:49:55.548Z,49.38
2022-12-05T22:51:57.779Z,49.45
2022-12-05T22:54:18.493Z,53.92
2022-12-05T22:56:39.144Z,48.30
2022-12-05T22:59:01.856Z,48.27
2022-12-05T23:01:32.385Z,50.78
2022-12-05T23:04:00.481Z,52.03
2022-12-05T23:06:22.863Z,51.47
2022-12-05T23:08:47.836Z,53.17
2022-12-05T23:11:10.411Z,50.45
2022-12-05T23:13:33.560Z,52.60
2022-12-05T23:15:55.900Z,53.55
2022-12-05T23:18:18.231Z,56.05
2022-12-05T23:20:40.554Z,51.37
2022-12-05T23:23:02.922Z,55.03
2022-12-05T23:25:25.249Z,54.17
2022-12-05T23:27:47.567Z,53.33
2022-12-05T23:30:10.840Z,56.65
2022-12-05T23:34:55.549Z,53.20
2022-12-05T23:37:17.873Z,56.80
2022-12-05T23:39:40.278Z,52.93
2022-12-05T23:42:02.628Z,55.80
2022-12-05T23:44:24.920Z,54.97
2022-12-05T23:46:47.386Z,53.78
2022-12-05T23:49:09.898Z,52.90
2022-12-05T23:51:32.358Z,54.53
2022-12-05T23:53:57.034Z,54.72
2022-12-05T23:56:22.832Z,54.25
2022-12-05T23:58:45.313Z,53.88
